Wetterdaten: Woche 17.03.14 - 23.03.14 (KW12)
Datum Zeit Temperatur Luftfeuchte Luftdruck Niederschlag Windrichtung Sonnenschein Solar Wind
17.03.2014 00:00 4,5 C 89 % 1021,8 hPa 0,0 l/m N 0,00 h 0 W/m 0,4 km/h (0 Bft)
17.03.2014 01:00 3,7 C 92 % 1021,9 hPa 0,0 l/m N 0,00 h 0 W/m 0,5 km/h (0 Bft)
17.03.2014 02:00 3,2 C 93 % 1021,6 hPa 0,0 l/m N 0,00 h 0 W/m 1,3 km/h (1 Bft)
17.03.2014 03:00 3,6 C 94 % 1021,1 hPa 0,0 l/m N 0,00 h 0 W/m 2,1 km/h (1 Bft)
17.03.2014 04:00 4,0 C 93 % 1021,2 hPa 0,0 l/m W 0,00 h 0 W/m 2,1 km/h (1 Bft)
17.03.2014 05:00 3,2 C 93 % 1021,1 hPa 0,0 l/m N 0,00 h 0 W/m 0,7 km/h (0 Bft)
17.03.2014 06:00 2,4 C 93 % 1021,1 hPa 0,0 l/m W 0,00 h 10 W/m 2,0 km/h (1 Bft)
17.03.2014 07:00 3,1 C 96 % 1021,0 hPa 0,0 l/m SW 0,08 h 68 W/m 6,4 km/h (2 Bft)
17.03.2014 08:00 6,1 C 97 % 1021,6 hPa 0,0 l/m S 1,00 h 240 W/m 9,1 km/h (2 Bft)
17.03.2014 09:00 8,8 C 88 % 1021,7 hPa 0,0 l/m S-SW 1,00 h 407 W/m 14,1 km/h (3 Bft)
17.03.2014 10:00 12,3 C 65 % 1021,4 hPa 0,0 l/m SW 1,00 h 545 W/m 19,3 km/h (3 Bft)
17.03.2014 11:00 14,5 C 55 % 1020,9 hPa 0,0 l/m SW 1,00 h 635 W/m 18,1 km/h (3 Bft)
17.03.2014 12:00 16,0 C 49 % 1020,3 hPa 0,0 l/m SW 1,00 h 667 W/m 17,3 km/h (3 Bft)
17.03.2014 13:00 17,1 C 44 % 1019,5 hPa 0,0 l/m W-SW 1,00 h 653 W/m 16,4 km/h (3 Bft)
17.03.2014 14:00 18,4 C 40 % 1018,8 hPa 0,0 l/m SW 1,00 h 585 W/m 17,3 km/h (3 Bft)
17.03.2014 15:00 18,7 C 40 % 1018,1 hPa 0,0 l/m SW 1,00 h 473 W/m 18,8 km/h (3 Bft)
17.03.2014 16:00 18,4 C 40 % 1017,6 hPa 0,0 l/m W 1,00 h 321 W/m 18,4 km/h (3 Bft)
17.03.2014 17:00 17,9 C 38 % 1017,4 hPa 0,0 l/m W-SW 0,75 h 119 W/m 12,5 km/h (3 Bft)
17.03.2014 18:00 15,7 C 45 % 1017,7 hPa 0,0 l/m W-NW 0,00 h 11 W/m 7,6 km/h (2 Bft)
17.03.2014 19:00 13,1 C 54 % 1018,2 hPa 0,0 l/m W-NW 0,00 h 0 W/m 6,1 km/h (2 Bft)
17.03.2014 20:00 11,1 C 59 % 1018,8 hPa 0,0 l/m N 0,00 h 0 W/m 2,3 km/h (1 Bft)
17.03.2014 21:00 9,0 C 65 % 1018,9 hPa 0,0 l/m N 0,00 h 0 W/m 0,0 km/h (0 Bft)
17.03.2014 22:00 7,1 C 71 % 1018,9 hPa 0,0 l/m N 0,00 h 0 W/m 0,0 km/h (0 Bft)
17.03.2014 23:00 5,8 C 77 % 1018,9 hPa 0,0 l/m N 0,00 h 0 W/m 0,1 km/h (0 Bft)
18.03.2014 00:00 4,6 C 81 % 1018,7 hPa 0,0 l/m N 0,00 h 0 W/m 0,0 km/h (0 Bft)
18.03.2014 01:00 3,8 C 84 % 1018,7 hPa 0,0 l/m N 0,00 h 0 W/m 0,4 km/h (0 Bft)
18.03.2014 02:00 3,1 C 87 % 1018,4 hPa 0,0 l/m N 0,00 h 0 W/m 0,0 km/h (0 Bft)
18.03.2014 03:00 2,4 C 87 % 1017,8 hPa 0,0 l/m N 0,00 h 0 W/m 0,0 km/h (0 Bft)
18.03.2014 04:00 1,5 C 88 % 1017,3 hPa 0,0 l/m N 0,00 h 0 W/m 0,0 km/h (0 Bft)
18.03.2014 05:00 0,9 C 89 % 1017,1 hPa 0,0 l/m N 0,00 h 0 W/m 0,0 km/h (0 Bft)
18.03.2014 06:00 0,3 C 91 % 1017,0 hPa 0,0 l/m N 0,08 h 12 W/m 0,0 km/h (0 Bft)
18.03.2014 07:00 0,6 C 93 % 1017,0 hPa 0,0 l/m N 0,00 h 60 W/m 0,3 km/h (0 Bft)
18.03.2014 08:00 1,9 C 94 % 1017,2 hPa 0,0 l/m N 0,08 h 129 W/m 0,0 km/h (0 Bft)
18.03.2014 09:00 5,4 C 92 % 1017,1 hPa 0,0 l/m W-SW 1,00 h 418 W/m 4,3 km/h (1 Bft)
18.03.2014 10:00 11,1 C 71 % 1016,5 hPa 0,0 l/m S 1,00 h 532 W/m 11,6 km/h (2 Bft)
18.03.2014 11:00 14,7 C 59 % 1015,9 hPa 0,0 l/m S-SW 1,00 h 586 W/m 14,4 km/h (3 Bft)
18.03.2014 12:00 16,9 C 47 % 1015,2 hPa 0,0 l/m SW 1,00 h 625 W/m 18,6 km/h (3 Bft)
18.03.2014 13:00 18,1 C 38 % 1014,3 hPa 0,0 l/m W-SW 1,00 h 633 W/m 21,7 km/h (4 Bft)
18.03.2014 14:00 18,5 C 36 % 1013,7 hPa 0,0 l/m SW 1,00 h 508 W/m 22,6 km/h (4 Bft)
18.03.2014 15:00 18,4 C 39 % 1013,2 hPa 0,0 l/m W-SW 0,92 h 371 W/m 17,6 km/h (3 Bft)
18.03.2014 16:00 17,6 C 39 % 1013,0 hPa 0,0 l/m W-SW 0,25 h 154 W/m 18,9 km/h (3 Bft)
18.03.2014 17:00 16,9 C 39 % 1013,0 hPa 0,0 l/m W-SW 0,00 h 63 W/m 14,0 km/h (3 Bft)
18.03.2014 18:00 15,7 C 43 % 1013,4 hPa 0,0 l/m W-NW 0,00 h 11 W/m 6,7 km/h (2 Bft)
18.03.2014 19:00 13,2 C 55 % 1014,0 hPa 0,0 l/m N 0,00 h 0 W/m 1,7 km/h (1 Bft)
18.03.2014 20:00 12,5 C 57 % 1014,2 hPa 0,0 l/m W-SW 0,00 h 0 W/m 6,6 km/h (2 Bft)
18.03.2014 21:00 13,9 C 45 % 1014,9 hPa 0,0 l/m W 0,00 h 0 W/m 14,9 km/h (3 Bft)
18.03.2014 22:00 13,5 C 52 % 1016,1 hPa 0,0 l/m W-NW 0,00 h 0 W/m 17,7 km/h (3 Bft)
18.03.2014 23:00 11,8 C 62 % 1017,1 hPa 0,0 l/m W-NW 0,00 h 0 W/m 16,8 km/h (3 Bft)
19.03.2014 00:00 10,1 C 65 % 1017,9 hPa 0,0 l/m W-NW 0,00 h 0 W/m 21,0 km/h (4 Bft)
19.03.2014 01:00 8,5 C 70 % 1019,2 hPa 0,0 l/m W 0,00 h 0 W/m 16,5 km/h (3 Bft)
19.03.2014 02:00 8,3 C 71 % 1019,9 hPa 0,0 l/m W-SW 0,00 h 0 W/m 12,4 km/h (3 Bft)
19.03.2014 03:00 8,2 C 72 % 1020,6 hPa 0,0 l/m W-NW 0,00 h 0 W/m 12,2 km/h (2 Bft)
19.03.2014 04:00 8,1 C 70 % 1021,4 hPa 0,0 l/m W 0,00 h 0 W/m 13,7 km/h (3 Bft)
19.03.2014 05:00 8,1 C 64 % 1022,0 hPa 0,0 l/m W 0,00 h 0 W/m 14,4 km/h (3 Bft)
19.03.2014 06:00 7,9 C 66 % 1022,6 hPa 0,0 l/m W-SW 0,00 h 7 W/m 18,1 km/h (3 Bft)
19.03.2014 07:00 7,9 C 67 % 1023,4 hPa 0,0 l/m W-SW 0,00 h 17 W/m 16,9 km/h (3 Bft)
19.03.2014 08:00 8,2 C 68 % 1024,0 hPa 0,0 l/m W-SW 0,00 h 44 W/m 18,2 km/h (3 Bft)
19.03.2014 09:00 8,8 C 66 % 1024,5 hPa 0,0 l/m W 0,00 h 84 W/m 20,1 km/h (4 Bft)
19.03.2014 10:00 9,4 C 64 % 1024,8 hPa 0,0 l/m W-NW 0,00 h 134 W/m 19,6 km/h (3 Bft)
19.03.2014 11:00 10,1 C 61 % 1024,7 hPa 0,0 l/m W-NW 0,00 h 219 W/m 17,8 km/h (3 Bft)
19.03.2014 12:00 11,0 C 56 % 1024,3 hPa 0,0 l/m W-NW 0,08 h 223 W/m 19,4 km/h (3 Bft)
19.03.2014 13:00 11,5 C 54 % 1024,1 hPa 0,0 l/m W-NW 0,00 h 222 W/m 19,7 km/h (3 Bft)
19.03.2014 14:00 12,8 C 52 % 1023,9 hPa 0,0 l/m W 0,42 h 416 W/m 14,4 km/h (3 Bft)
19.03.2014 15:00 13,0 C 50 % 1023,9 hPa 0,0 l/m W 0,42 h 346 W/m 13,4 km/h (3 Bft)
19.03.2014 16:00 13,0 C 51 % 1024,0 hPa 0,0 l/m W-SW 0,75 h 282 W/m 12,4 km/h (3 Bft)
19.03.2014 17:00 12,6 C 52 % 1024,3 hPa 0,0 l/m W-NW 0,75 h 112 W/m 11,5 km/h (2 Bft)
19.03.2014 18:00 10,7 C 59 % 1024,8 hPa 0,0 l/m W-NW 0,00 h 14 W/m 2,8 km/h (1 Bft)
19.03.2014 19:00 8,6 C 67 % 1025,2 hPa 0,0 l/m W-NW 0,00 h 0 W/m 3,2 km/h (1 Bft)
19.03.2014 20:00 6,9 C 74 % 1025,5 hPa 0,0 l/m N 0,00 h 0 W/m 0,3 km/h (0 Bft)
19.03.2014 21:00 5,6 C 79 % 1025,7 hPa 0,0 l/m S-SW 0,00 h 0 W/m 1,6 km/h (1 Bft)
19.03.2014 22:00 4,3 C 84 % 1025,6 hPa 0,0 l/m N 0,00 h 0 W/m 0,4 km/h (0 Bft)
19.03.2014 23:00 3,4 C 87 % 1025,2 hPa 0,0 l/m N 0,00 h 0 W/m 0,7 km/h (0 Bft)
20.03.2014 00:00 2,9 C 88 % 1024,7 hPa 0,0 l/m N 0,00 h 0 W/m 0,1 km/h (0 Bft)
20.03.2014 01:00 2,3 C 90 % 1024,2 hPa 0,0 l/m N 0,00 h 0 W/m 0,0 km/h (0 Bft)
20.03.2014 02:00 2,1 C 90 % 1023,4 hPa 0,0 l/m N 0,00 h 0 W/m 0,1 km/h (0 Bft)
20.03.2014 03:00 1,8 C 91 % 1022,9 hPa 0,0 l/m N 0,00 h 0 W/m 0,3 km/h (0 Bft)
20.03.2014 04:00 1,5 C 91 % 1022,4 hPa 0,0 l/m S-SW 0,00 h 0 W/m 1,1 km/h (0 Bft)
20.03.2014 05:00 1,5 C 92 % 1021,9 hPa 0,0 l/m S-SW 0,00 h 0 W/m 2,0 km/h (1 Bft)
20.03.2014 06:00 1,3 C 93 % 1022,0 hPa 0,0 l/m N-NW 0,00 h 12 W/m 4,7 km/h (1 Bft)
20.03.2014 07:00 1,7 C 94 % 1021,8 hPa 0,0 l/m N-NW 0,25 h 83 W/m 3,9 km/h (1 Bft)
20.03.2014 08:00 4,0 C 93 % 1021,8 hPa 0,0 l/m N-NW 1,00 h 269 W/m 4,5 km/h (1 Bft)
20.03.2014 09:00 8,0 C 75 % 1021,5 hPa 0,0 l/m N-NW 1,00 h 435 W/m 5,9 km/h (2 Bft)
20.03.2014 10:00 11,2 C 64 % 1020,7 hPa 0,0 l/m O-NO 1,00 h 558 W/m 7,9 km/h (2 Bft)
20.03.2014 11:00 15,1 C 49 % 1019,9 hPa 0,0 l/m S-SO 1,00 h 667 W/m 9,0 km/h (2 Bft)
20.03.2014 12:00 17,7 C 41 % 1019,0 hPa 0,0 l/m SO 1,00 h 695 W/m 9,9 km/h (2 Bft)
20.03.2014 13:00 19,5 C 38 % 1018,1 hPa 0,0 l/m S-SW 1,00 h 673 W/m 14,0 km/h (3 Bft)
20.03.2014 14:00 20,4 C 34 % 1017,5 hPa 0,0 l/m W-SW 1,00 h 603 W/m 23,1 km/h (4 Bft)
20.03.2014 15:00 20,0 C 31 % 1016,8 hPa 0,0 l/m W-SW 1,00 h 486 W/m 29,5 km/h (5 Bft)
20.03.2014 16:00 19,6 C 33 % 1016,2 hPa 0,0 l/m W 1,00 h 345 W/m 20,9 km/h (4 Bft)
20.03.2014 17:00 18,4 C 36 % 1015,9 hPa 0,0 l/m W-SW 0,67 h 105 W/m 13,7 km/h (3 Bft)
20.03.2014 18:00 15,3 C 45 % 1015,8 hPa 0,0 l/m W-SW 0,00 h 14 W/m 3,3 km/h (1 Bft)
20.03.2014 19:00 11,8 C 57 % 1015,7 hPa 0,0 l/m N 0,00 h 0 W/m 1,3 km/h (1 Bft)
20.03.2014 20:00 10,2 C 64 % 1015,4 hPa 0,0 l/m N 0,00 h 0 W/m 0,0 km/h (0 Bft)
20.03.2014 21:00 8,5 C 70 % 1015,4 hPa 0,0 l/m N 0,00 h 0 W/m 0,0 km/h (0 Bft)
20.03.2014 22:00 8,4 C 68 % 1015,5 hPa 0,0 l/m W-SW 0,00 h 0 W/m 3,5 km/h (1 Bft)
20.03.2014 23:00 7,9 C 66 % 1015,4 hPa 0,0 l/m N 0,00 h 0 W/m 1,3 km/h (1 Bft)
21.03.2014 00:00 6,2 C 72 % 1015,0 hPa 0,0 l/m N 0,00 h 0 W/m 0,3 km/h (0 Bft)
21.03.2014 01:00 6,0 C 72 % 1015,0 hPa 0,0 l/m N 0,00 h 0 W/m 2,5 km/h (1 Bft)
21.03.2014 02:00 5,7 C 72 % 1014,7 hPa 0,0 l/m N 0,00 h 0 W/m 0,5 km/h (0 Bft)
21.03.2014 03:00 4,7 C 77 % 1014,5 hPa 0,0 l/m N 0,00 h 0 W/m 0,1 km/h (0 Bft)
21.03.2014 04:00 3,9 C 80 % 1014,2 hPa 0,0 l/m N 0,00 h 0 W/m 0,0 km/h (0 Bft)
21.03.2014 05:00 3,3 C 82 % 1014,1 hPa 0,0 l/m N 0,00 h 0 W/m 0,0 km/h (0 Bft)
21.03.2014 06:00 2,7 C 83 % 1014,0 hPa 0,0 l/m N 0,00 h 13 W/m 0,0 km/h (0 Bft)
21.03.2014 07:00 2,8 C 86 % 1014,1 hPa 0,0 l/m N 0,17 h 83 W/m 0,0 km/h (0 Bft)
21.03.2014 08:00 5,1 C 83 % 1013,9 hPa 0,0 l/m W-SW 1,00 h 254 W/m 2,9 km/h (1 Bft)
21.03.2014 09:00 10,8 C 71 % 1013,7 hPa 0,0 l/m SW 1,00 h 409 W/m 16,8 km/h (3 Bft)
21.03.2014 10:00 15,3 C 54 % 1013,5 hPa 0,0 l/m W-NW 1,00 h 512 W/m 23,5 km/h (4 Bft)
21.03.2014 11:00 16,8 C 44 % 1013,3 hPa 0,0 l/m W-SW 1,00 h 602 W/m 28,2 km/h (4 Bft)
21.03.2014 12:00 17,8 C 39 % 1012,6 hPa 0,0 l/m W-SW 1,00 h 637 W/m 31,9 km/h (5 Bft)
21.03.2014 13:00 18,3 C 35 % 1011,6 hPa 0,0 l/m W-SW 1,00 h 600 W/m 39,8 km/h (6 Bft)
21.03.2014 14:00 18,9 C 35 % 1010,9 hPa 0,0 l/m W-SW 1,00 h 561 W/m 34,2 km/h (5 Bft)
21.03.2014 15:00 18,7 C 35 % 1010,3 hPa 0,0 l/m W-SW 1,00 h 473 W/m 30,4 km/h (5 Bft)
21.03.2014 16:00 18,6 C 35 % 1009,8 hPa 0,0 l/m W-SW 1,00 h 315 W/m 20,8 km/h (4 Bft)
21.03.2014 17:00 17,5 C 39 % 1009,7 hPa 0,0 l/m W-NW 0,00 h 61 W/m 12,3 km/h (3 Bft)
21.03.2014 18:00 15,7 C 45 % 1010,2 hPa 0,0 l/m W-NW 0,00 h 9 W/m 12,3 km/h (3 Bft)
21.03.2014 19:00 14,4 C 50 % 1010,7 hPa 0,0 l/m NW 0,00 h 0 W/m 6,9 km/h (2 Bft)
21.03.2014 20:00 13,1 C 57 % 1011,0 hPa 0,0 l/m N 0,00 h 0 W/m 1,5 km/h (1 Bft)
21.03.2014 21:00 11,2 C 65 % 1010,8 hPa 0,0 l/m N 0,00 h 0 W/m 1,3 km/h (1 Bft)
21.03.2014 22:00 10,1 C 71 % 1010,6 hPa 0,0 l/m N 0,00 h 0 W/m 0,4 km/h (0 Bft)
21.03.2014 23:00 9,5 C 73 % 1010,2 hPa 0,0 l/m N 0,00 h 0 W/m 0,8 km/h (0 Bft)
22.03.2014 00:00 8,9 C 75 % 1009,7 hPa 0,0 l/m N 0,00 h 0 W/m 1,7 km/h (1 Bft)
22.03.2014 01:00 8,8 C 75 % 1008,9 hPa 0,0 l/m NW 0,00 h 0 W/m 2,8 km/h (1 Bft)
22.03.2014 02:00 8,4 C 75 % 1008,3 hPa 0,0 l/m W-NW 0,00 h 0 W/m 2,8 km/h (1 Bft)
22.03.2014 03:00 7,2 C 80 % 1007,7 hPa 0,0 l/m N 0,00 h 0 W/m 0,1 km/h (0 Bft)
22.03.2014 04:00 6,7 C 83 % 1006,9 hPa 0,0 l/m N 0,00 h 0 W/m 0,0 km/h (0 Bft)
22.03.2014 05:00 6,6 C 84 % 1006,2 hPa 0,0 l/m N 0,00 h 0 W/m 0,0 km/h (0 Bft)
22.03.2014 06:00 6,4 C 86 % 1005,7 hPa 0,0 l/m N 0,00 h 9 W/m 0,0 km/h (0 Bft)
22.03.2014 07:00 7,1 C 85 % 1005,4 hPa 0,0 l/m N 0,00 h 50 W/m 0,0 km/h (0 Bft)
22.03.2014 08:00 9,0 C 81 % 1005,4 hPa 0,0 l/m W-NW 0,00 h 72 W/m 3,5 km/h (1 Bft)
22.03.2014 09:00 10,8 C 76 % 1005,1 hPa 0,0 l/m W 0,25 h 190 W/m 6,7 km/h (2 Bft)
22.03.2014 10:00 11,8 C 73 % 1005,5 hPa 0,0 l/m W-NW 0,00 h 232 W/m 16,2 km/h (3 Bft)
22.03.2014 11:00 11,2 C 71 % 1005,8 hPa 0,0 l/m W-NW 0,00 h 97 W/m 26,0 km/h (4 Bft)
22.03.2014 12:00 10,5 C 73 % 1005,3 hPa 0,0 l/m W-NW 0,00 h 162 W/m 25,3 km/h (4 Bft)
22.03.2014 13:00 9,9 C 76 % 1004,6 hPa 0,0 l/m W-SW 0,00 h 84 W/m 16,1 km/h (3 Bft)
22.03.2014 14:00 9,8 C 77 % 1004,1 hPa 0,0 l/m W-NW 0,00 h 56 W/m 12,4 km/h (3 Bft)
22.03.2014 15:00 8,8 C 84 % 1004,5 hPa 1,2 l/m W-NW 0,00 h 36 W/m 17,0 km/h (3 Bft)
22.03.2014 16:00 7,0 C 91 % 1004,9 hPa 2,6 l/m W-SW 0,00 h 24 W/m 15,3 km/h (3 Bft)
22.03.2014 17:00 6,5 C 94 % 1004,8 hPa 1,2 l/m SW 0,00 h 12 W/m 13,0 km/h (3 Bft)
22.03.2014 18:00 5,7 C 94 % 1004,9 hPa 0,2 l/m SW 0,00 h 0 W/m 20,6 km/h (4 Bft)
22.03.2014 19:00 5,2 C 95 % 1005,0 hPa 0,0 l/m SW 0,00 h 0 W/m 20,8 km/h (4 Bft)
22.03.2014 20:00 5,0 C 95 % 1005,3 hPa 0,0 l/m SW 0,00 h 0 W/m 20,0 km/h (4 Bft)
22.03.2014 21:00 4,9 C 95 % 1005,3 hPa 0,0 l/m W-SW 0,00 h 0 W/m 18,6 km/h (3 Bft)
22.03.2014 22:00 5,1 C 95 % 1005,5 hPa 1,4 l/m SW 0,00 h 0 W/m 11,1 km/h (2 Bft)
22.03.2014 23:00 5,0 C 95 % 1005,7 hPa 1,2 l/m W-SW 0,00 h 0 W/m 6,1 km/h (2 Bft)
23.03.2014 00:00 4,8 C 96 % 1005,5 hPa 0,4 l/m W 0,00 h 0 W/m 3,3 km/h (1 Bft)
23.03.2014 01:00 4,6 C 96 % 1005,8 hPa 0,6 l/m SW 0,00 h 0 W/m 6,3 km/h (2 Bft)
23.03.2014 02:00 4,1 C 96 % 1005,8 hPa 1,0 l/m W-SW 0,00 h 0 W/m 12,9 km/h (3 Bft)
23.03.2014 03:00 3,5 C 95 % 1005,5 hPa 0,2 l/m W-SW 0,00 h 0 W/m 6,0 km/h (2 Bft)
23.03.2014 04:00 3,2 C 95 % 1005,3 hPa 0,0 l/m W-SW 0,00 h 0 W/m 4,3 km/h (1 Bft)
23.03.2014 05:00 3,0 C 96 % 1005,3 hPa 0,0 l/m W-SW 0,00 h 0 W/m 5,6 km/h (1 Bft)
23.03.2014 06:00 2,9 C 96 % 1005,5 hPa 0,4 l/m W-NW 0,00 h 5 W/m 6,0 km/h (2 Bft)
23.03.2014 07:00 2,5 C 96 % 1005,4 hPa 0,2 l/m N 0,00 h 14 W/m 1,5 km/h (1 Bft)
23.03.2014 08:00 2,6 C 96 % 1005,6 hPa 0,2 l/m W-NW 0,00 h 27 W/m 3,1 km/h (1 Bft)
23.03.2014 09:00 2,8 C 96 % 1005,8 hPa 0,6 l/m W-NW 0,00 h 58 W/m 5,3 km/h (1 Bft)
23.03.2014 10:00 3,1 C 96 % 1005,9 hPa 0,4 l/m W-NW 0,00 h 105 W/m 5,8 km/h (1 Bft)
23.03.2014 11:00 4,1 C 94 % 1005,8 hPa 0,0 l/m W-NW 0,00 h 106 W/m 5,5 km/h (1 Bft)
23.03.2014 12:00 4,5 C 91 % 1005,9 hPa 0,0 l/m NW 0,00 h 122 W/m 7,2 km/h (2 Bft)
23.03.2014 13:00 4,7 C 86 % 1005,4 hPa 0,0 l/m W-NW 0,00 h 146 W/m 14,6 km/h (3 Bft)
23.03.2014 14:00 5,1 C 83 % 1005,5 hPa 0,0 l/m W-NW 0,00 h 109 W/m 9,0 km/h (2 Bft)
23.03.2014 15:00 4,2 C 90 % 1005,8 hPa 0,6 l/m SW 0,00 h 71 W/m 10,6 km/h (2 Bft)
23.03.2014 16:00 3,4 C 93 % 1006,3 hPa 0,2 l/m W 0,00 h 38 W/m 6,7 km/h (2 Bft)
23.03.2014 17:00 2,8 C 94 % 1006,7 hPa 0,0 l/m O-SO 0,00 h 14 W/m 8,0 km/h (2 Bft)
23.03.2014 18:00 1,5 C 96 % 1007,0 hPa 0,8 l/m SW 0,00 h 5 W/m 6,3 km/h (2 Bft)
23.03.2014 19:00 1,0 C 97 % 1007,2 hPa 0,2 l/m SW 0,00 h 0 W/m 5,8 km/h (2 Bft)
23.03.2014 20:00 1,1 C 97 % 1007,7 hPa 0,0 l/m N 0,00 h 0 W/m 2,0 km/h (1 Bft)
23.03.2014 21:00 0,9 C 97 % 1008,1 hPa 0,0 l/m SW 0,00 h 0 W/m 3,9 km/h (1 Bft)
23.03.2014 22:00 1,0 C 97 % 1008,4 hPa 0,0 l/m SW 0,00 h 0 W/m 2,0 km/h (1 Bft)
23.03.2014 23:00 1,1 C 97 % 1008,4 hPa 0,0 l/m W 0,00 h 0 W/m 5,8 km/h (1 Bft)
Min-Datum _ 18.03.14 20.03.14 22.03.14 - - - - 17.03.14
_ Min-Zeit 06:15 14:40 14:25 - - - - 00:00
Minimum _ 0,3 C 29 % 1004,0 hPa - - - - 0,0 km/h (0 Bft)
Max-Datum _ 20.03.14 22.03.14 19.03.14 22.03.14 - 17.03.14 19.03.14 21.03.14
_ Max-Zeit 14:40 23:20 21:00 16:05 - 07:55 14:10 14:25
Maximum _ 20,6 C 100 % 1025,8 hPa 2,6 l/m - 0,08 h 786 W/m 48,3 km/h
W-SW (6 Bft)
Durchschnitt _ 8,6 C 72 % 1014,7 hPa #13,6 l/m W-SW #38:55 h 248 W/m 9,1 km/h (2 Bft)